Time;durP1;ratioP1;P1;durP2;ratioP2;P2;SDS_P1;SDS_P2;PMS_P1;PMS_P2;Temp;Humidity;BMP_temperature;BMP_pressure;BME280_temperature;BME280_humidity;BME280_pressure;Samples;Min_cycle;Max_cycle;Signal;HPM_P1;HPM_P2
2021/03/30 00:01:03;;;;;;;34.67;14.43;;;;;;;11.07;79.51;101887.20;4915280;59;1142448;-74
2021/03/30 00:06:08;;;;;;;26.73;12.20;;;;;;;11.03;79.06;101893.60;4960916;58;1142609;-74
2021/03/30 00:11:14;;;;;;;28.20;12.10;;;;;;;11.00;79.18;101896.41;4979978;58;1142651;-75
2021/03/30 00:16:20;;;;;;;108.15;76.42;;;;;;;11.03;79.28;101887.45;4980050;58;1142674;-73
2021/03/30 00:21:25;;;;;;;58.30;37.75;;;;;;;11.02;79.27;101896.33;4914784;59;1145440;-74
2021/03/30 00:26:35;;;;;;;34.47;13.30;;;;;;;10.89;78.59;101886.45;4979897;57;1142790;-75
2021/03/30 00:31:38;;;;;;;24.83;11.63;;;;;;;10.89;78.59;101886.45;4976109;57;1142762;-74
2021/03/30 00:36:44;;;;;;;21.67;11.27;;;;;;;10.85;78.54;101898.14;4979727;58;1142995;-75
2021/03/30 00:41:49;;;;;;;29.93;12.70;;;;;;;10.76;78.49;101904.44;4980178;58;1142651;-75
2021/03/30 00:46:55;;;;;;;30.73;12.37;;;;;;;10.68;78.63;101905.36;4864623;59;1142496;-74
2021/03/30 00:52:02;;;;;;;29.33;11.90;;;;;;;10.64;78.83;101904.66;4854639;59;1142523;-75
2021/03/30 00:57:25;;;;;;;24.63;12.93;;;;;;;10.62;78.64;101903.89;4854653;59;1143045;-74
2021/03/30 01:02:30;;;;;;;21.55;11.75;;;;;;;10.58;78.38;101912.46;4854427;59;1142645;-74
2021/03/30 01:07:37;;;;;;;31.23;13.43;;;;;;;10.57;78.49;101911.22;4854373;59;1142682;-74
2021/03/30 01:13:17;;;;;;;29.27;14.30;;;;;;;10.52;78.39;101912.82;4854426;59;1143016;-74
2021/03/30 01:18:57;;;;;;;24.47;12.93;;;;;;;10.41;78.25;101910.36;4854484;59;1142625;-75
2021/03/30 01:24:21;;;;;;;24.80;12.53;;;;;;;10.20;77.99;101897.39;4745987;60;1143011;-74
2021/03/30 01:29:46;;;;;;;26.07;13.78;;;;;;;10.20;77.99;101897.39;4766122;61;1143128;-74
2021/03/30 01:34:55;;;;;;;23.23;12.77;;;;;;;10.19;77.83;101906.25;4765060;61;1142663;-75
2021/03/30 01:40:04;;;;;;;23.75;13.30;;;;;;;10.05;77.53;101910.07;4764947;61;1142561;-75
2021/03/30 01:45:11;;;;;;;21.43;12.30;;;;;;;9.83;77.24;101914.77;4765192;61;1147336;-74
2021/03/30 01:50:17;;;;;;;30.70;12.45;;;;;;;9.75;77.68;101920.47;4735868;61;1140445;-74
2021/03/30 01:55:23;;;;;;;31.17;14.58;;;;;;;9.75;78.02;101921.78;4765290;61;1140995;-74
2021/03/30 02:00:34;;;;;;;23.53;12.50;;;;;;;9.68;78.05;101909.81;4889668;58;1140477;-73
2021/03/30 02:05:39;;;;;;;26.83;12.97;;;;;;;9.71;77.90;101929.47;4871684;58;1140516;-75
2021/03/30 02:10:49;;;;;;;20.00;11.20;;;;;;;9.65;77.94;101927.13;4876956;59;1140390;-74
2021/03/30 02:16:06;;;;;;;28.17;10.80;;;;;;;9.63;78.12;101928.14;4845641;59;1140875;-74
2021/03/30 02:21:16;;;;;;;23.27;11.90;;;;;;;9.63;78.03;101928.14;4903919;58;1140413;-75
2021/03/30 02:26:22;;;;;;;20.23;12.27;;;;;;;9.60;77.89;101929.64;4924422;58;1141162;-75
2021/03/30 02:31:32;;;;;;;27.87;12.45;;;;;;;9.57;77.85;101929.80;4925551;58;1140775;-73
2021/03/30 02:36:38;;;;;;;23.27;12.20;;;;;;;9.44;77.50;101940.12;4925477;58;1140412;-74
2021/03/30 02:41:45;;;;;;;29.77;13.70;;;;;;;9.30;77.48;101940.81;4925405;58;1140638;-73
2021/03/30 02:46:51;;;;;;;29.47;13.30;;;;;;;9.27;77.52;101948.89;4925218;58;1140960;-73
2021/03/30 02:51:58;;;;;;;25.73;14.20;;;;;;;9.15;77.19;101961.38;4925286;58;1140896;-74
2021/03/30 02:57:04;;;;;;;28.20;13.63;;;;;;;9.03;77.72;101953.56;4925428;58;1140657;-74
2021/03/30 03:02:13;;;;;;;23.83;11.97;;;;;;;9.00;78.13;101951.55;4944368;58;1140567;-73
2021/03/30 03:07:20;;;;;;;19.35;10.28;;;;;;;9.03;78.18;101947.42;4924673;58;1140688;-74
2021/03/30 03:12:25;;;;;;;31.07;11.83;;;;;;;9.05;78.34;101952.17;4925328;58;1140544;-75
2021/03/30 03:17:32;;;;;;;27.70;11.97;;;;;;;9.04;78.15;101955.73;4925171;58;1140853;-74
2021/03/30 03:22:38;;;;;;;19.70;11.17;;;;;;;9.00;78.59;101959.01;4925128;58;1140509;-75
2021/03/30 03:27:44;;;;;;;27.07;12.13;;;;;;;8.90;78.48;101956.86;4925230;58;1140987;-75
2021/03/30 03:32:50;;;;;;;26.47;11.77;;;;;;;8.79;78.62;101954.28;4925040;58;1140452;-74
2021/03/30 03:37:55;;;;;;;31.87;12.37;;;;;;;8.76;78.94;101951.78;4925159;58;1140982;-73
2021/03/30 03:43:02;;;;;;;18.77;10.50;;;;;;;8.76;79.12;101962.33;4925352;58;1140542;-74
2021/03/30 03:48:07;;;;;;;20.87;10.93;;;;;;;8.70;79.28;101961.31;4932694;58;1140849;-75
2021/03/30 03:53:16;;;;;;;33.47;13.03;;;;;;;8.60;79.58;101963.97;4980271;58;1140893;-73
2021/03/30 03:58:25;;;;;;;22.60;11.03;;;;;;;8.56;79.81;101967.67;4999414;58;1140678;-75
2021/03/30 04:03:34;;;;;;;24.33;12.00;;;;;;;8.57;79.87;101972.02;4999559;58;1140678;-75
2021/03/30 04:08:49;;;;;;;26.47;11.90;;;;;;;8.60;80.02;101981.58;4999404;58;1140853;-74
2021/03/30 04:13:56;;;;;;;25.93;12.93;;;;;;;8.59;80.16;101997.86;4996627;58;1140411;-74
2021/03/30 04:19:02;;;;;;;26.77;13.03;;;;;;;8.62;80.51;101995.09;4989483;58;1140962;-74
2021/03/30 04:24:08;;;;;;;25.05;11.05;;;;;;;8.74;80.83;102002.89;4919479;58;1140330;-74
2021/03/30 04:29:14;;;;;;;24.97;11.83;;;;;;;8.84;80.50;102007.30;4919823;59;1140846;-76
2021/03/30 04:34:19;;;;;;;21.23;11.13;;;;;;;8.94;80.38;102009.89;4919759;58;1140729;-77
2021/03/30 04:39:25;;;;;;;23.42;10.68;;;;;;;9.03;80.45;102010.76;4933675;58;1141184;-74
2021/03/30 04:44:31;;;;;;;24.53;11.57;;;;;;;9.08;80.43;102013.58;4941034;58;1140904;-74
2021/03/30 04:49:36;;;;;;;25.10;12.87;;;;;;;9.10;80.09;102014.83;4944481;58;1140761;-74
2021/03/30 04:54:42;;;;;;;32.93;14.50;;;;;;;9.02;79.54;102015.64;4991418;58;1140598;-73
2021/03/30 04:59:47;;;;;;;23.70;10.33;;;;;;;8.97;79.49;102013.70;4987356;58;1140972;-73
2021/03/30 05:04:53;;;;;;;27.48;12.47;;;;;;;8.97;79.52;102013.24;4987480;58;1140823;-73
2021/03/30 05:09:58;;;;;;;34.10;14.80;;;;;;;8.95;79.41;102015.56;4986997;58;1140594;-75
2021/03/30 05:15:04;;;;;;;29.83;15.30;;;;;;;8.93;79.56;102022.69;4987431;58;1140689;-74
2021/03/30 05:20:11;;;;;;;30.13;13.67;;;;;;;8.90;79.70;102022.83;4943719;58;1140792;-74
2021/03/30 05:25:16;;;;;;;31.77;15.70;;;;;;;8.89;79.58;102031.66;4975344;58;1140763;-73
2021/03/30 05:30:22;;;;;;;30.77;15.43;;;;;;;8.95;79.81;102027.43;5010978;58;1140582;-74
2021/03/30 05:35:28;;;;;;;28.70;12.23;;;;;;;8.97;79.91;102030.39;5017918;58;1140965;-74
2021/03/30 05:40:33;;;;;;;24.53;12.30;;;;;;;9.00;80.21;102037.32;5017734;58;1140982;-74
2021/03/30 05:45:39;;;;;;;24.60;12.07;;;;;;;8.98;80.41;102039.17;4996333;58;1140982;-74
2021/03/30 05:50:45;;;;;;;26.77;14.80;;;;;;;8.99;80.68;102045.70;4943710;58;1140915;-73
2021/03/30 05:55:54;;;;;;;24.33;13.63;;;;;;;9.08;81.05;102052.31;4987576;58;1140417;-74
2021/03/30 06:01:06;;;;;;;21.60;12.18;;;;;;;9.22;81.53;102055.62;4961014;58;1140495;-75
2021/03/30 06:06:12;;;;;;;28.23;12.23;;;;;;;9.30;81.52;102049.06;4935103;58;1140556;-74
2021/03/30 06:11:17;;;;;;;32.60;15.13;;;;;;;9.33;81.54;102053.31;4932566;58;1140421;-74
2021/03/30 06:16:33;;;;;;;25.17;14.00;;;;;;;9.39;81.64;102051.25;4875795;58;1141106;-74
2021/03/30 06:21:42;;;;;;;32.50;16.83;;;;;;;9.48;81.84;102061.82;4858143;59;1140841;-73
2021/03/30 06:26:49;;;;;;;22.77;12.43;;;;;;;9.58;82.02;102059.14;4856380;59;1140927;-74
2021/03/30 06:31:56;;;;;;;24.53;12.93;;;;;;;9.61;82.18;102074.00;4783573;60;1140921;-74
2021/03/30 06:37:02;;;;;;;21.97;13.43;;;;;;;9.65;82.28;102082.99;4778646;60;1140896;-74
2021/03/30 06:42:21;;;;;;;23.77;13.37;;;;;;;9.69;82.67;102075.78;4778670;60;1140953;-74
2021/03/30 06:47:23;;;;;;;;;;;;;;;9.76;82.85;102074.56;4782176;60;1140925;-74
2021/03/30 06:52:34;;;;;;;89.37;59.73;;;;;;;9.84;83.19;102078.98;4775870;60;973840;-74
2021/03/30 06:57:49;;;;;;;33.23;15.00;;;;;;;9.91;83.54;102083.52;4829631;60;1138479;-74
2021/03/30 07:03:00;;;;;;;82.67;27.00;;;;;;;10.02;83.79;102082.50;4782386;60;1140606;-75
2021/03/30 07:08:14;;;;;;;79.77;27.50;;;;;;;10.13;83.79;102087.63;4825067;60;1142560;-75
2021/03/30 07:13:22;;;;;;;23.70;12.88;;;;;;;10.26;84.09;102081.74;4826685;60;1143164;-75
2021/03/30 07:18:41;;;;;;;22.32;13.03;;;;;;;10.41;84.02;102091.06;4826561;60;1143201;-75
2021/03/30 07:24:00;;;;;;;26.85;15.45;;;;;;;10.51;84.32;102093.64;4826438;60;1142966;-77
2021/03/30 07:29:10;;;;;;;22.67;11.50;;;;;;;10.69;84.30;102100.23;4824624;59;1142802;-77
2021/03/30 07:34:25;;;;;;;21.52;10.95;;;;;;;10.78;83.93;102099.26;4735924;60;1142836;-77
2021/03/30 07:39:41;;;;;;;20.75;10.00;;;;;;;10.85;83.79;102107.70;4781309;58;1142758;-77
2021/03/30 07:44:51;;;;;;;26.70;13.00;;;;;;;10.89;83.84;102103.97;4777973;61;1142923;-77
2021/03/30 07:49:57;;;;;;;18.63;10.33;;;;;;;10.97;83.70;102105.75;4882937;58;1142677;-77
2021/03/30 07:55:23;;;;;;;24.13;12.27;;;;;;;11.07;83.83;102104.77;4866440;58;1142788;-78
2021/03/30 08:00:42;;;;;;;20.40;11.40;;;;;;;11.16;83.89;102106.44;4967666;58;1142772;-78
2021/03/30 08:06:12;;;;;;;20.40;8.93;;;;;;;11.27;83.91;102110.70;4949024;58;1142783;-81
2021/03/30 08:11:42;;;;;;;14.23;8.03;;;;;;;11.39;83.86;102114.45;4923736;58;1140744;-79
2021/03/30 08:16:52;;;;;;;16.93;8.03;;;;;;;11.51;83.92;102121.72;5003709;58;1140714;-81
2021/03/30 08:22:07;;;;;;;12.00;7.77;;;;;;;11.63;83.86;102134.27;4967727;58;1140697;-73
2021/03/30 08:27:37;;;;;;;15.63;7.73;;;;;;;11.74;83.68;102128.86;4842533;60;1140662;-76
2021/03/30 08:32:48;;;;;;;15.30;8.17;;;;;;;11.83;83.37;102127.88;4838654;60;1140599;-76
2021/03/30 08:37:55;;;;;;;12.10;7.77;;;;;;;11.93;83.39;102132.17;4892863;58;1140668;-74
2021/03/30 08:43:03;;;;;;;11.10;7.17;;;;;;;12.02;83.30;102134.78;4989708;58;1140370;-81
2021/03/30 08:48:13;;;;;;;13.83;6.70;;;;;;;12.22;83.19;102140.61;4998651;58;1140555;-85
2021/03/30 08:53:21;;;;;;;13.70;7.03;;;;;;;12.22;83.19;102140.61;4963120;58;1140600;-80
2021/03/30 08:58:29;;;;;;;8.53;4.45;;;;;;;12.33;83.15;102147.49;4988473;58;1140714;-79
2021/03/30 09:03:36;;;;;;;10.08;5.87;;;;;;;12.43;82.23;102142.95;4889663;59;1138454;-76
2021/03/30 09:08:43;;;;;;;16.93;7.53;;;;;;;12.51;82.26;102150.00;4948782;58;1140664;-79
2021/03/30 09:14:08;;;;;;;6.77;4.43;;;;;;;12.61;82.12;102149.83;4780491;61;1140496;-78
2021/03/30 09:19:29;;;;;;;13.73;4.47;;;;;;;12.72;82.23;102154.00;4859740;59;1138506;-73
2021/03/30 09:29:56;;;;;;;8.33;4.20;;;;;;;12.84;81.36;102155.91;4964850;58;1138555;-73
2021/03/30 09:35:12;;;;;;;7.57;4.30;;;;;;;12.89;80.85;102156.48;4927895;59;1138444;-73
2021/03/30 09:40:30;;;;;;;7.12;3.05;;;;;;;12.92;80.64;102150.14;4934225;59;1138978;-75
2021/03/30 09:45:39;;;;;;;9.35;3.47;;;;;;;13.02;80.71;102147.28;4923046;59;1138808;-74
2021/03/30 09:50:50;;;;;;;5.43;3.27;;;;;;;13.13;80.58;102140.86;4934255;59;1138493;-73
2021/03/30 09:55:56;;;;;;;5.33;3.63;;;;;;;13.23;79.78;102132.70;4933576;59;1138592;-73
2021/03/30 10:01:05;;;;;;;5.03;2.03;;;;;;;13.37;80.49;102135.81;4927738;59;1138631;-74
2021/03/30 10:06:23;;;;;;;4.67;3.90;;;;;;;13.50;79.92;102126.11;4866981;58;1138485;-75
2021/03/30 10:11:30;;;;;;;8.65;3.62;;;;;;;13.76;78.24;102128.39;4839024;59;1138539;-83
2021/03/30 10:16:35;;;;;;;4.40;2.12;;;;;;;13.76;78.24;102128.39;4854950;59;1138531;-79
2021/03/30 10:21:44;;;;;;;3.27;1.40;;;;;;;13.90;78.53;102124.34;4845826;59;1138505;-80
2021/03/30 10:27:09;;;;;;;1.77;1.40;;;;;;;14.00;77.33;102121.48;4787718;60;1138598;-84
2021/03/30 10:32:17;;;;;;;2.97;2.57;;;;;;;14.12;76.96;102122.45;4805427;59;1138499;-80
2021/03/30 10:37:21;;;;;;;4.10;1.47;;;;;;;14.19;77.20;102119.78;4801742;58;1138810;-82
2021/03/30 10:42:31;;;;;;;5.12;1.40;;;;;;;14.29;76.17;102099.56;4748852;60;1138593;-82
2021/03/30 10:47:44;;;;;;;1.45;0.93;;;;;;;14.42;76.56;102100.93;4768923;60;1138545;-82
2021/03/30 10:52:50;;;;;;;2.40;1.13;;;;;;;14.72;75.55;102093.95;4772266;60;1138575;-80
2021/03/30 10:57:59;;;;;;;5.40;2.23;;;;;;;14.99;76.15;102091.16;4769732;60;1139063;-78
2021/03/30 11:03:05;;;;;;;2.63;1.13;;;;;;;15.23;72.71;102088.08;4772532;59;1138333;-81
2021/03/30 11:08:12;;;;;;;10.23;4.47;;;;;;;15.40;74.09;102077.53;4778127;60;1138726;-78
2021/03/30 11:13:17;;;;;;;9.63;4.10;;;;;;;15.75;72.58;102082.94;4783022;59;1140832;-78
2021/03/30 11:18:23;;;;;;;6.23;4.33;;;;;;;15.88;73.58;102073.08;4768549;59;1138842;-80
2021/03/30 11:23:28;;;;;;;3.80;2.20;;;;;;;15.93;70.05;102066.89;4832538;59;1138756;-78
2021/03/30 11:28:40;;;;;;;14.60;5.20;;;;;;;16.16;71.74;102039.80;4896352;59;1139066;-75
2021/03/30 11:33:49;;;;;;;10.97;4.20;;;;;;;16.16;71.74;102039.80;4891767;59;1140391;-75
2021/03/30 11:38:51;;;;;;;11.13;5.57;;;;;;;16.50;70.48;102048.20;4895378;59;1140620;-75
2021/03/30 11:43:56;;;;;;;13.83;6.93;;;;;;;16.74;68.63;102032.11;4891661;59;1140614;-76
2021/03/30 11:49:02;;;;;;;10.13;4.80;;;;;;;16.88;68.90;102035.86;4895456;59;1140725;-76
2021/03/30 11:54:08;;;;;;;5.60;3.50;;;;;;;17.06;68.03;102028.68;4891531;59;1140539;-76
2021/03/30 11:59:13;;;;;;;9.20;4.00;;;;;;;17.32;66.75;102016.70;4895719;59;1138625;-76
2021/03/30 12:04:19;;;;;;;5.97;3.60;;;;;;;17.48;64.25;102021.14;4891294;59;1138669;-76
2021/03/30 12:09:25;;;;;;;7.77;4.53;;;;;;;17.59;64.39;102016.23;4896165;59;1138568;-76
2021/03/30 12:14:31;;;;;;;9.05;3.83;;;;;;;17.74;65.23;102003.42;4891731;59;1138915;-76
2021/03/30 12:19:37;;;;;;;10.93;4.78;;;;;;;17.93;62.16;102005.77;4896006;59;1138697;-77
2021/03/30 12:24:43;;;;;;;6.30;4.37;;;;;;;18.08;61.47;102003.61;4844705;59;1140514;-76
2021/03/30 12:29:48;;;;;;;12.87;5.87;;;;;;;18.24;62.49;101991.94;4828793;59;1138423;-76
2021/03/30 12:34:54;;;;;;;12.57;6.67;;;;;;;18.40;60.53;101990.11;4828588;59;1140319;-75
2021/03/30 12:39:59;;;;;;;12.67;5.53;;;;;;;18.54;60.96;101993.77;4829315;60;1140428;-75
2021/03/30 12:45:06;;;;;;;8.37;5.10;;;;;;;18.77;59.16;101985.57;4829332;60;1140496;-75
2021/03/30 12:50:13;;;;;;;10.67;6.37;;;;;;;18.90;59.84;101978.98;4829748;59;1138485;-74
2021/03/30 12:55:19;;;;;;;11.43;5.53;;;;;;;19.07;58.71;101974.78;4828833;59;1140476;-76
2021/03/30 13:00:25;;;;;;;12.93;6.17;;;;;;;19.16;57.36;101973.08;4859857;59;1140598;-74
2021/03/30 13:05:30;;;;;;;10.88;4.60;;;;;;;19.26;58.55;101966.73;4855766;58;1140847;-74
2021/03/30 13:10:36;;;;;;;10.50;4.72;;;;;;;19.37;56.53;101963.09;4910743;59;1140803;-75
2021/03/30 13:15:41;;;;;;;17.87;6.47;;;;;;;19.56;57.87;101947.48;4855649;59;1140789;-76
2021/03/30 13:20:47;;;;;;;10.78;3.98;;;;;;;19.70;56.83;101947.08;4907637;59;1140697;-74
2021/03/30 13:25:53;;;;;;;8.83;4.20;;;;;;;19.84;56.29;101946.62;4979513;58;1140733;-74
2021/03/30 13:30:58;;;;;;;18.37;6.92;;;;;;;19.91;56.24;101946.38;4979740;58;1138697;-75
2021/03/30 13:36:04;;;;;;;10.40;4.33;;;;;;;19.94;55.63;101940.72;4979390;58;1140862;-75
2021/03/30 13:41:12;;;;;;;14.80;5.60;;;;;;;20.09;54.97;101937.57;4979278;58;1140766;-75
2021/03/30 13:46:17;;;;;;;13.72;6.05;;;;;;;20.08;55.05;101935.88;4975899;58;1140653;-75
2021/03/30 13:51:22;;;;;;;14.90;4.22;;;;;;;20.21;54.64;101927.84;4973141;58;1140735;-75
2021/03/30 13:56:28;;;;;;;12.63;4.67;;;;;;;20.14;53.78;101923.22;4917653;59;1140887;-73
2021/03/30 14:01:35;;;;;;;13.10;4.43;;;;;;;20.13;54.75;101920.17;4931972;59;1141116;-74
2021/03/30 14:06:41;;;;;;;12.70;5.30;;;;;;;20.26;54.79;101909.94;4932028;59;1140816;-76
2021/03/30 14:17:05;;;;;;;14.28;6.05;;;;;;;20.45;54.89;101900.48;4932074;59;1140822;-75
2021/03/30 14:22:14;;;;;;;11.18;5.65;;;;;;;20.54;54.58;101902.75;4931786;59;1140797;-76
2021/03/30 14:27:19;;;;;;;14.07;4.60;;;;;;;20.51;54.73;101898.52;4934310;58;1140754;-74
2021/03/30 14:32:30;;;;;;;7.35;4.30;;;;;;;20.59;54.45;101896.44;4932657;58;1141157;-74
2021/03/30 14:37:36;;;;;;;12.75;5.50;;;;;;;20.62;53.99;101902.34;4923691;58;1139075;-74
2021/03/30 14:42:50;;;;;;;13.03;4.60;;;;;;;20.66;54.21;101901.55;4923542;58;1141187;-72
2021/03/30 14:53:06;;;;;;;10.62;3.56;;;;;;;20.71;53.09;101889.35;4936268;58;1140874;-73
2021/03/30 14:58:20;;;;;;;;;;;;;;;20.75;54.04;101885.87;4933100;58;1140629;-75
2021/03/30 15:03:26;;;;;;;12.85;4.30;;;;;;;20.77;52.23;101882.53;4905721;58;975822;-78
2021/03/30 15:08:28;;;;;;;6.24;3.40;;;;;;;20.67;52.89;101873.66;4888127;58;1138675;-76
2021/03/30 15:13:34;;;;;;;8.53;3.58;;;;;;;20.61;52.75;101863.04;4905890;59;1138560;-76
2021/03/30 15:18:39;;;;;;;6.78;3.00;;;;;;;20.65;53.37;101856.84;4905720;59;1138772;-74
2021/03/30 15:23:45;;;;;;;11.35;3.80;;;;;;;20.65;53.75;101850.11;4905613;59;1138740;-78
2021/03/30 15:28:50;;;;;;;12.63;4.15;;;;;;;20.70;53.76;101850.52;4905158;59;1141086;-75
2021/03/30 15:33:56;;;;;;;15.13;4.80;;;;;;;20.73;53.87;101848.02;4905291;59;1141094;-74
2021/03/30 15:39:02;;;;;;;11.85;4.03;;;;;;;20.73;53.57;101844.84;4905081;59;1140942;-75
2021/03/30 15:44:14;;;;;;;8.68;2.95;;;;;;;20.73;53.60;101845.34;4905250;59;1141087;-75
2021/03/30 15:49:16;;;;;;;12.25;5.28;;;;;;;20.78;54.48;101844.39;4905208;58;1138942;-76
2021/03/30 15:54:24;;;;;;;10.03;5.42;;;;;;;20.76;53.53;101849.92;4905302;59;1140750;-75
2021/03/30 15:59:28;;;;;;;12.30;4.47;;;;;;;20.66;53.47;101847.28;4916947;59;1140634;-74
2021/03/30 16:04:34;;;;;;;16.97;8.83;;;;;;;20.61;54.10;101846.91;4856362;59;1140950;-73
2021/03/30 16:09:40;;;;;;;83.82;71.30;;;;;;;20.53;53.39;101841.92;4995545;59;1138796;-73
2021/03/30 16:14:46;;;;;;;41.28;30.95;;;;;;;20.45;53.82;101841.85;4966866;58;1142656;-75
2021/03/30 16:19:52;;;;;;;21.27;11.33;;;;;;;20.41;54.15;101839.11;4949216;58;1142800;-75
2021/03/30 16:24:59;;;;;;;10.13;4.30;;;;;;;20.38;53.73;101837.56;5025245;58;21293;-74
2021/03/30 16:30:06;;;;;;;10.15;3.50;;;;;;;20.33;54.50;101839.81;5002893;58;1136486;-73
2021/03/30 16:35:12;;;;;;;7.40;2.72;;;;;;;20.29;54.65;101837.11;4930665;58;1140540;-75
2021/03/30 16:40:17;;;;;;;7.65;2.95;;;;;;;20.22;54.84;101843.56;4945377;58;1138496;-73
2021/03/30 16:45:23;;;;;;;6.97;2.95;;;;;;;20.19;54.78;101837.63;4864800;59;1138438;-73
2021/03/30 16:50:29;;;;;;;6.95;2.80;;;;;;;20.11;55.18;101842.92;4936150;58;1138688;-73
2021/03/30 16:55:34;;;;;;;29.27;4.08;;;;;;;20.01;55.46;101849.69;4939121;58;1138375;-73
2021/03/30 17:00:42;;;;;;;8.88;2.83;;;;;;;19.88;55.70;101854.02;4878515;59;1140709;-75
2021/03/30 17:05:47;;;;;;;9.85;3.08;;;;;;;19.72;55.59;101855.14;4834749;59;1139222;-74
2021/03/30 17:10:53;;;;;;;11.22;3.92;;;;;;;19.53;56.02;101856.55;4832415;59;1138326;-73
2021/03/30 17:15:59;;;;;;;5.08;2.83;;;;;;;19.37;56.42;101852.23;4747176;59;1140529;-75
2021/03/30 17:21:05;;;;;;;10.40;3.95;;;;;;;19.22;56.74;101856.70;4815048;60;1138421;-73
2021/03/30 17:26:10;;;;;;;15.72;5.85;;;;;;;19.12;57.23;101858.52;4842941;60;1140434;-75
2021/03/30 17:31:17;;;;;;;29.87;17.15;;;;;;;19.12;57.67;101859.87;4930622;57;1140677;-74
2021/03/30 17:36:23;;;;;;;40.98;26.70;;;;;;;19.08;57.61;101858.97;4888548;58;1142485;-75
2021/03/30 17:41:28;;;;;;;33.92;21.68;;;;;;;18.93;57.61;101863.91;4899576;58;1143150;-77
2021/03/30 17:46:34;;;;;;;42.35;17.98;;;;;;;18.81;58.15;101859.16;4902415;59;1142440;-75
2021/03/30 17:51:40;;;;;;;30.08;14.33;;;;;;;18.70;58.38;101865.14;4868488;59;1142571;-76
2021/03/30 17:56:46;;;;;;;23.40;12.63;;;;;;;18.55;58.52;101867.34;4843899;59;1142979;-76
2021/03/30 18:01:51;;;;;;;29.35;12.82;;;;;;;18.46;58.93;101862.82;4925020;58;1142765;-78
2021/03/30 18:06:57;;;;;;;37.25;15.50;;;;;;;18.36;59.04;101865.94;4941365;57;1142623;-75
2021/03/30 18:12:02;;;;;;;32.98;17.15;;;;;;;18.28;59.43;101866.16;4941933;58;1142743;-75
2021/03/30 18:17:09;;;;;;;49.05;20.95;;;;;;;18.09;59.13;101862.55;4999266;58;1142479;-75
2021/03/30 18:22:14;;;;;;;50.70;22.37;;;;;;;17.94;59.49;101864.73;4999161;57;1142605;-76
2021/03/30 18:27:20;;;;;;;45.75;20.45;;;;;;;17.80;59.81;101864.60;4948500;58;1142638;-76
2021/03/30 18:32:26;;;;;;;41.18;15.80;;;;;;;17.74;60.39;101870.97;4973036;57;1142789;-75
2021/03/30 18:37:31;;;;;;;42.57;17.47;;;;;;;17.69;60.53;101871.38;4962082;58;1142621;-76
2021/03/30 18:42:40;;;;;;;50.27;20.77;;;;;;;17.58;60.27;101871.40;4931375;59;1142712;-75
2021/03/30 18:47:46;;;;;;;47.78;22.20;;;;;;;17.38;60.48;101873.13;4936257;59;1143089;-75
2021/03/30 18:52:51;;;;;;;45.65;22.30;;;;;;;17.23;60.74;101872.59;4972779;57;1143257;-76
2021/03/30 18:58:00;;;;;;;60.58;24.52;;;;;;;17.08;61.06;101872.54;4965051;58;1142616;-75
2021/03/30 19:03:05;;;;;;;62.87;29.13;;;;;;;17.02;61.48;101874.37;4877031;58;1143077;-76
2021/03/30 19:08:11;;;;;;;64.45;33.18;;;;;;;17.04;61.64;101872.43;4932028;59;1142674;-76
2021/03/30 19:13:17;;;;;;;71.03;34.83;;;;;;;16.96;61.44;101874.05;4896136;58;1142563;-76
2021/03/30 19:18:23;;;;;;;86.87;45.17;;;;;;;16.87;61.74;101875.64;4889475;58;1142607;-76
2021/03/30 19:23:28;;;;;;;117.27;57.87;;;;;;;16.72;61.50;101872.41;4931145;58;1142601;-76
2021/03/30 19:28:35;;;;;;;93.97;51.57;;;;;;;16.55;61.59;101866.23;4884955;58;1144591;-76
2021/03/30 19:33:50;;;;;;;80.97;43.27;;;;;;;16.38;62.01;101857.39;4869482;59;1143018;-76
2021/03/30 19:38:52;;;;;;;;;;;;;;;16.30;62.43;101858.03;4931321;58;1142619;-76
2021/03/30 19:43:58;;;;;;;78.95;36.13;;;;;;;16.23;62.42;101869.30;4860713;58;976314;-76
2021/03/30 19:49:03;;;;;;;75.13;37.50;;;;;;;16.07;62.46;101867.00;4952919;57;1140988;-76
2021/03/30 19:54:09;;;;;;;95.37;45.83;;;;;;;15.98;62.61;101866.41;4966262;57;1142652;-76
2021/03/30 19:59:17;;;;;;;88.93;45.73;;;;;;;15.91;63.01;101867.36;4967945;57;1142613;-76
2021/03/30 20:04:22;;;;;;;103.40;48.33;;;;;;;15.91;63.06;101863.84;4985681;57;1142551;-76
2021/03/30 20:09:28;;;;;;;87.10;47.03;;;;;;;15.86;62.72;101856.71;4976305;57;1144718;-76
2021/03/30 20:14:34;;;;;;;83.87;41.77;;;;;;;15.69;62.74;101857.55;4861206;59;1142626;-77
2021/03/30 20:19:39;;;;;;;86.50;44.30;;;;;;;15.39;62.54;101851.39;4893760;58;1142624;-77
2021/03/30 20:24:46;;;;;;;113.07;50.57;;;;;;;15.20;63.16;101850.23;4922208;57;1143072;-77
2021/03/30 20:29:51;;;;;;;90.45;47.65;;;;;;;15.16;63.88;101848.77;4879940;58;1144943;-77
2021/03/30 20:34:57;;;;;;;92.67;42.15;;;;;;;15.08;63.90;101848.03;4952998;58;1142967;-77
2021/03/30 20:40:05;;;;;;;95.30;42.37;;;;;;;15.07;64.14;101852.98;4941509;58;1142960;-77
2021/03/30 20:45:12;;;;;;;75.37;36.20;;;;;;;14.96;63.76;101851.14;4980443;58;1142891;-77
2021/03/30 20:50:19;;;;;;;83.07;35.70;;;;;;;14.84;63.75;101846.70;4906012;58;1142461;-76
2021/03/30 20:55:24;;;;;;;68.60;30.97;;;;;;;14.76;64.24;101841.95;4905629;59;1142494;-77
2021/03/30 21:00:30;;;;;;;67.67;29.43;;;;;;;14.79;64.10;101847.55;4900973;59;1142631;-77
2021/03/30 21:05:36;;;;;;;64.43;28.37;;;;;;;14.61;64.00;101843.09;4905960;58;1142602;-77
2021/03/30 21:10:42;;;;;;;58.02;28.40;;;;;;;14.58;64.54;101843.31;4913691;59;1151582;-79
2021/03/30 21:15:48;;;;;;;85.50;35.60;;;;;;;14.57;64.80;101846.93;4893534;58;1143030;-77
2021/03/30 21:20:53;;;;;;;64.87;30.60;;;;;;;14.52;64.63;101842.41;4932940;58;1142775;-77
2021/03/30 21:25:59;;;;;;;62.08;28.00;;;;;;;14.37;64.25;101843.02;4855104;59;1142609;-77
2021/03/30 21:31:04;;;;;;;54.03;26.67;;;;;;;14.18;64.38;101833.35;4957525;58;1142527;-77
2021/03/30 21:36:10;;;;;;;42.00;19.10;;;;;;;14.09;64.70;101839.31;4966986;58;1142951;-77
2021/03/30 21:41:16;;;;;;;40.63;19.30;;;;;;;14.06;65.05;101844.36;4961662;58;1142836;-77
2021/03/30 21:46:21;;;;;;;41.37;18.63;;;;;;;14.07;64.85;101837.23;4930088;58;1142668;-77
2021/03/30 21:51:27;;;;;;;31.27;16.50;;;;;;;13.98;64.76;101834.77;4962150;58;1142717;-77
2021/03/30 21:56:33;;;;;;;28.50;12.30;;;;;;;13.90;64.80;101827.80;4907966;59;1142683;-77
2021/03/30 22:01:39;;;;;;;27.13;13.97;;;;;;;13.70;64.94;101829.69;4835449;59;1142626;-77
2021/03/30 22:06:45;;;;;;;41.57;20.87;;;;;;;13.41;65.48;101830.38;4942337;58;1143027;-78
2021/03/30 22:11:55;;;;;;;33.63;17.23;;;;;;;13.26;66.08;101825.64;4977317;57;1142676;-79
2021/03/30 22:16:58;;;;;;;67.05;35.83;;;;;;;13.32;66.55;101828.34;4988820;58;1143089;-79
2021/03/30 22:22:04;;;;;;;47.43;24.00;;;;;;;13.38;66.36;101826.13;4996926;58;1142680;-78
2021/03/30 22:27:10;;;;;;;62.23;34.57;;;;;;;13.43;66.66;101820.98;5008058;58;1142524;-78
2021/03/30 22:32:17;;;;;;;56.67;30.90;;;;;;;13.48;66.63;101825.48;5008272;58;1142531;-79
2021/03/30 22:37:23;;;;;;;51.27;26.43;;;;;;;13.44;66.39;101824.01;5008027;58;1142667;-79
2021/03/30 22:42:28;;;;;;;40.63;22.47;;;;;;;13.32;66.23;101813.72;5008008;58;1142652;-78
2021/03/30 22:47:34;;;;;;;38.37;21.70;;;;;;;13.12;65.79;101816.39;5008156;58;1142621;-79
2021/03/30 22:52:40;;;;;;;36.23;17.60;;;;;;;12.89;66.15;101804.64;5008019;58;1142429;-79
2021/03/30 22:57:46;;;;;;;26.10;13.37;;;;;;;12.94;66.45;101818.48;5008179;58;1142894;-79
2021/03/30 23:02:52;;;;;;;28.77;15.00;;;;;;;12.96;66.60;101819.23;5008128;58;1142677;-79
2021/03/30 23:07:57;;;;;;;31.25;16.15;;;;;;;12.95;66.35;101821.51;5008054;58;1142695;-79
2021/03/30 23:13:03;;;;;;;31.33;15.60;;;;;;;12.85;66.31;101807.59;5007947;58;1142986;-79
2021/03/30 23:18:09;;;;;;;30.03;15.53;;;;;;;12.80;66.28;101807.92;5008144;58;1143231;-78